Time;durP1;ratioP1;P1;durP2;ratioP2;P2;SDS_P1;SDS_P2;PMS_P1;PMS_P2;Temp;Humidity;BMP_temperature;BMP_pressure;BME280_temperature;BME280_humidity;BME280_pressure;Samples;Min_cycle;Max_cycle;Signal;HPM_P1;HPM_P2
2021/11/28 00:02:26;;;;;;;7.97;5.50;;;;;;;;;;5073733;28;20793;-88
2021/11/28 00:04:54;;;;;;;5.37;4.83;;;;;;;;;;5073456;28;20232;-89
2021/11/28 00:07:31;;;;;;;8.37;4.90;;;;;;;;;;5074247;28;20230;-89
2021/11/28 00:10:04;;;;;;;5.10;4.60;;;;;;;;;;5073915;28;20267;-88
2021/11/28 00:12:41;;;;;;;7.37;5.80;;;;;;;;;;5073596;28;20198;-88
2021/11/28 00:15:10;;;;;;;8.33;5.43;;;;;;;;;;5072869;28;20232;-88
2021/11/28 00:17:37;;;;;;;9.30;5.87;;;;;;;;;;5073215;28;20529;-89
2021/11/28 00:20:06;;;;;;;7.00;5.03;;;;;;;;;;5074365;28;20187;-91
2021/11/28 00:22:33;;;;;;;6.10;5.47;;;;;;;;;;5074734;28;20197;-90
2021/11/28 00:24:59;;;;;;;7.80;5.80;;;;;;;;;;5074011;28;20712;-90
2021/11/28 00:27:26;;;;;;;7.13;5.17;;;;;;;;;;5073349;28;20194;-89
2021/11/28 00:29:53;;;;;;;8.73;5.30;;;;;;;;;;5073417;28;20233;-89
2021/11/28 00:32:20;;;;;;;7.33;5.37;;;;;;;;;;5074769;28;20234;-90
2021/11/28 00:34:47;;;;;;;8.33;5.33;;;;;;;;;;5072245;28;20202;-89
2021/11/28 00:37:14;;;;;;;6.10;5.40;;;;;;;;;;5068698;28;20725;-89
2021/11/28 00:39:42;;;;;;;6.07;4.73;;;;;;;;;;5073155;28;20194;-88
2021/11/28 00:42:09;;;;;;;9.97;4.80;;;;;;;;;;5069433;28;20198;-90
2021/11/28 00:44:36;;;;;;;7.07;5.00;;;;;;;;;;5052828;28;20675;-89
2021/11/28 00:47:03;;;;;;;4.70;4.27;;;;;;;;;;5052390;28;20231;-87
2021/11/28 00:49:33;;;;;;;5.20;4.27;;;;;;;;;;5052055;28;20686;-90
2021/11/28 00:51:59;;;;;;;5.40;4.10;;;;;;;;;;5054348;28;20617;-90
2021/11/28 00:54:27;;;;;;;5.30;4.37;;;;;;;;;;5052601;28;20187;-88
2021/11/28 00:56:54;;;;;;;7.17;4.50;;;;;;;;;;5052498;28;20196;-87
2021/11/28 00:59:21;;;;;;;4.80;4.30;;;;;;;;;;5053879;28;20195;-88
2021/11/28 01:01:48;;;;;;;4.83;4.30;;;;;;;;;;5056874;28;20186;-88
2021/11/28 01:04:15;;;;;;;6.23;4.40;;;;;;;;;;5056170;28;20207;-88
2021/11/28 01:06:44;;;;;;;6.20;4.90;;;;;;;;;;5055702;28;20719;-89
2021/11/28 01:09:11;;;;;;;5.20;4.20;;;;;;;;;;5055289;28;20251;-88
2021/11/28 01:11:38;;;;;;;5.47;4.77;;;;;;;;;;5055902;28;20219;-89
2021/11/28 01:14:05;;;;;;;8.37;4.30;;;;;;;;;;5055540;28;20202;-89
2021/11/28 01:16:33;;;;;;;6.33;4.40;;;;;;;;;;5056175;28;20578;-87
2021/11/28 01:18:59;;;;;;;6.33;4.83;;;;;;;;;;5055390;28;20249;-88
2021/11/28 01:21:26;;;;;;;5.13;4.40;;;;;;;;;;5057640;28;20176;-88
2021/11/28 01:23:54;;;;;;;5.67;4.70;;;;;;;;;;5057258;28;20180;-88
2021/11/28 01:26:21;;;;;;;8.50;5.47;;;;;;;;;;5055751;28;20195;-88
2021/11/28 01:28:48;;;;;;;5.07;4.57;;;;;;;;;;5055268;28;20196;-89
2021/11/28 01:31:15;;;;;;;6.50;4.47;;;;;;;;;;5056472;28;20207;-88
2021/11/28 01:33:42;;;;;;;8.60;5.17;;;;;;;;;;5055991;28;20232;-88
2021/11/28 01:36:08;;;;;;;5.47;4.70;;;;;;;;;;5055905;28;20702;-87
2021/11/28 01:38:35;;;;;;;8.57;5.13;;;;;;;;;;5055959;28;20182;-88
2021/11/28 01:41:03;;;;;;;6.07;4.83;;;;;;;;;;5054689;28;20184;-88
2021/11/28 01:43:30;;;;;;;5.50;4.77;;;;;;;;;;5055813;28;20666;-88
2021/11/28 01:45:57;;;;;;;8.40;4.93;;;;;;;;;;5055037;28;20191;-88
2021/11/28 01:48:24;;;;;;;7.57;5.40;;;;;;;;;;5054946;28;20199;-88
2021/11/28 01:50:51;;;;;;;5.67;4.80;;;;;;;;;;5055261;28;20253;-88
2021/11/28 01:53:19;;;;;;;7.50;5.23;;;;;;;;;;5054382;28;20207;-88
2021/11/28 01:55:46;;;;;;;8.10;5.47;;;;;;;;;;5054953;28;20204;-89
2021/11/28 01:58:14;;;;;;;7.03;5.13;;;;;;;;;;5054927;28;20221;-89
2021/11/28 02:00:43;;;;;;;6.27;5.20;;;;;;;;;;5056426;28;20198;-88
2021/11/28 02:03:11;;;;;;;6.57;5.40;;;;;;;;;;5054667;28;20196;-88
2021/11/28 02:05:40;;;;;;;9.67;6.03;;;;;;;;;;5056133;28;20188;-89
2021/11/28 02:08:07;;;;;;;8.53;5.93;;;;;;;;;;5053630;28;20231;-88
2021/11/28 02:10:33;;;;;;;13.00;6.87;;;;;;;;;;5052922;28;20741;-88
2021/11/28 02:13:00;;;;;;;10.40;6.77;;;;;;;;;;5054488;28;20207;-88
2021/11/28 02:15:28;;;;;;;9.47;6.50;;;;;;;;;;5054114;28;20540;-88
2021/11/28 02:17:56;;;;;;;8.37;6.10;;;;;;;;;;5053469;28;20195;-88
2021/11/28 02:20:24;;;;;;;12.57;6.47;;;;;;;;;;5055106;28;20675;-89
2021/11/28 02:22:52;;;;;;;8.83;6.30;;;;;;;;;;5054094;28;20298;-88
2021/11/28 02:25:19;;;;;;;7.23;6.43;;;;;;;;;;5054155;28;20229;-89
2021/11/28 02:27:46;;;;;;;6.73;5.60;;;;;;;;;;5054691;28;20254;-89
2021/11/28 02:30:16;;;;;;;9.00;6.37;;;;;;;;;;5053367;28;20188;-88
2021/11/28 02:32:43;;;;;;;8.23;6.70;;;;;;;;;;5053127;28;20219;-88
2021/11/28 02:35:13;;;;;;;11.57;6.63;;;;;;;;;;5054680;28;20655;-88
2021/11/28 02:37:40;;;;;;;9.50;5.97;;;;;;;;;;5052724;28;20191;-87
2021/11/28 02:40:09;;;;;;;7.30;6.20;;;;;;;;;;5053442;28;20222;-88
2021/11/28 02:42:36;;;;;;;7.07;6.37;;;;;;;;;;5053360;28;20191;-88
2021/11/28 02:45:03;;;;;;;8.50;6.20;;;;;;;;;;5053557;28;20253;-88
2021/11/28 02:47:30;;;;;;;8.00;6.30;;;;;;;;;;5053129;28;20184;-88
2021/11/28 02:49:57;;;;;;;12.20;5.53;;;;;;;;;;5053286;28;20626;-88
2021/11/28 02:52:23;;;;;;;6.90;6.10;;;;;;;;;;5053524;28;20687;-89
2021/11/28 02:54:50;;;;;;;7.63;6.37;;;;;;;;;;5053659;28;20187;-87
2021/11/28 02:57:18;;;;;;;8.47;6.47;;;;;;;;;;5053958;28;20250;-87
2021/11/28 02:59:45;;;;;;;7.67;5.70;;;;;;;;;;5053363;28;20207;-88
2021/11/28 03:02:11;;;;;;;8.47;6.03;;;;;;;;;;5053449;28;20196;-88
2021/11/28 03:04:38;;;;;;;7.53;5.97;;;;;;;;;;5053648;28;20195;-90
2021/11/28 03:07:05;;;;;;;6.33;5.67;;;;;;;;;;5056046;28;20532;-89
2021/11/28 03:09:32;;;;;;;7.40;6.23;;;;;;;;;;5074560;28;20179;-88
2021/11/28 03:11:58;;;;;;;8.30;5.80;;;;;;;;;;5055647;28;20202;-88
2021/11/28 03:14:27;;;;;;;6.23;5.60;;;;;;;;;;5055232;28;20391;-88
2021/11/28 03:16:53;;;;;;;6.23;5.17;;;;;;;;;;5055293;28;20203;-88
2021/11/28 03:19:20;;;;;;;6.43;5.73;;;;;;;;;;5054953;28;20206;-87
2021/11/28 03:21:49;;;;;;;6.00;5.10;;;;;;;;;;5073304;28;20213;-88
2021/11/28 03:24:15;;;;;;;7.43;5.70;;;;;;;;;;5054693;28;20240;-88
2021/11/28 03:26:43;;;;;;;7.07;5.77;;;;;;;;;;5055540;28;20179;-88
2021/11/28 03:29:11;;;;;;;6.63;5.23;;;;;;;;;;5072797;28;20218;-87
2021/11/28 03:31:41;;;;;;;7.10;5.20;;;;;;;;;;5054877;28;20209;-86
2021/11/28 03:34:09;;;;;;;10.77;5.10;;;;;;;;;;5054900;28;20281;-88
2021/11/28 03:36:37;;;;;;;7.90;5.20;;;;;;;;;;5054856;28;20194;-87
2021/11/28 03:39:04;;;;;;;7.37;5.43;;;;;;;;;;5054786;28;20225;-88
2021/11/28 03:41:31;;;;;;;6.00;4.93;;;;;;;;;;5073050;28;20214;-88
2021/11/28 03:43:58;;;;;;;5.00;4.50;;;;;;;;;;5054777;28;20190;-86
2021/11/28 03:46:27;;;;;;;5.47;4.77;;;;;;;;;;5054542;28;20234;-87
2021/11/28 03:48:55;;;;;;;6.83;4.63;;;;;;;;;;5054639;28;20686;-87
2021/11/28 03:51:22;;;;;;;6.03;4.70;;;;;;;;;;5054407;28;20698;-87
2021/11/28 03:53:48;;;;;;;5.13;4.20;;;;;;;;;;5054758;28;20242;-87
2021/11/28 03:56:15;;;;;;;4.80;4.40;;;;;;;;;;5072257;28;20210;-88
2021/11/28 03:58:42;;;;;;;5.27;4.77;;;;;;;;;;5072653;28;20179;-88
2021/11/28 04:01:10;;;;;;;4.87;4.40;;;;;;;;;;5054414;28;20195;-87
2021/11/28 04:03:38;;;;;;;6.23;4.73;;;;;;;;;;5054420;28;20238;-87
2021/11/28 04:06:06;;;;;;;5.37;4.70;;;;;;;;;;5072616;28;20183;-87
2021/11/28 04:08:33;;;;;;;5.43;4.93;;;;;;;;;;5072515;28;20254;-87
2021/11/28 04:11:00;;;;;;;6.60;4.97;;;;;;;;;;5072314;28;20211;-88
2021/11/28 04:13:26;;;;;;;6.80;5.57;;;;;;;;;;5071829;28;20250;-87
2021/11/28 04:15:53;;;;;;;5.67;5.07;;;;;;;;;;5054547;28;20667;-88
2021/11/28 04:18:20;;;;;;;6.43;5.77;;;;;;;;;;5054638;28;20229;-87
2021/11/28 04:20:47;;;;;;;6.30;5.67;;;;;;;;;;5054758;28;20202;-88
2021/11/28 04:23:17;;;;;;;6.10;5.50;;;;;;;;;;5054306;28;20725;-87
2021/11/28 04:25:43;;;;;;;5.83;5.23;;;;;;;;;;5055022;28;20199;-87
2021/11/28 04:28:10;;;;;;;7.87;6.30;;;;;;;;;;5071821;28;20658;-86
2021/11/28 04:30:37;;;;;;;7.50;6.03;;;;;;;;;;5054278;28;20191;-88
2021/11/28 04:33:04;;;;;;;6.97;6.07;;;;;;;;;;5053270;28;20234;-87
2021/11/28 04:35:31;;;;;;;6.77;5.93;;;;;;;;;;5054154;28;20236;-88
2021/11/28 04:37:58;;;;;;;7.00;6.30;;;;;;;;;;5053531;28;20194;-87
2021/11/28 04:40:26;;;;;;;7.27;6.07;;;;;;;;;;5054804;28;20190;-88
2021/11/28 04:42:52;;;;;;;6.87;6.17;;;;;;;;;;5053729;28;20676;-89
2021/11/28 04:45:19;;;;;;;8.03;5.97;;;;;;;;;;5054497;28;20198;-88
2021/11/28 04:47:46;;;;;;;8.33;6.47;;;;;;;;;;5053650;28;20191;-88
2021/11/28 04:50:13;;;;;;;7.20;6.50;;;;;;;;;;5054432;28;20729;-88
2021/11/28 04:52:40;;;;;;;9.17;6.80;;;;;;;;;;5053803;28;20240;-88
2021/11/28 04:55:08;;;;;;;7.83;6.67;;;;;;;;;;5054608;28;20748;-88
2021/11/28 04:57:36;;;;;;;7.27;6.37;;;;;;;;;;5054452;28;20654;-87
2021/11/28 05:00:05;;;;;;;7.30;6.13;;;;;;;;;;5054302;28;20218;-87
2021/11/28 05:02:31;;;;;;;9.60;7.10;;;;;;;;;;5053650;28;20720;-87
2021/11/28 05:04:58;;;;;;;8.90;6.13;;;;;;;;;;5053946;28;20651;-88
2021/11/28 05:07:25;;;;;;;7.43;6.63;;;;;;;;;;5071730;28;20736;-88
2021/11/28 05:09:51;;;;;;;8.97;6.40;;;;;;;;;;5072134;28;20179;-88
2021/11/28 05:12:18;;;;;;;7.73;6.63;;;;;;;;;;5053995;28;20676;-87
2021/11/28 05:14:46;;;;;;;6.17;5.57;;;;;;;;;;5053327;28;20242;-87
2021/11/28 05:17:13;;;;;;;7.50;6.03;;;;;;;;;;5071383;28;20214;-88
2021/11/28 05:19:40;;;;;;;8.47;6.50;;;;;;;;;;5054223;28;20232;-90
2021/11/28 05:22:06;;;;;;;9.87;6.43;;;;;;;;;;5072455;28;20221;-91
2021/11/28 05:24:33;;;;;;;10.17;6.90;;;;;;;;;;5071924;28;20195;-88
2021/11/28 05:27:00;;;;;;;9.53;6.27;;;;;;;;;;5053437;28;20203;-89
2021/11/28 05:29:26;;;;;;;7.30;6.20;;;;;;;;;;5054174;28;20222;-88
2021/11/28 05:31:54;;;;;;;8.33;6.67;;;;;;;;;;5053714;28;20249;-88
2021/11/28 05:34:21;;;;;;;8.50;5.87;;;;;;;;;;5053599;28;20249;-88
2021/11/28 05:36:48;;;;;;;6.43;5.77;;;;;;;;;;5071256;28;20238;-88
2021/11/28 05:39:14;;;;;;;6.80;6.07;;;;;;;;;;5053501;28;20230;-88
2021/11/28 05:41:41;;;;;;;7.83;5.77;;;;;;;;;;5053466;28;20227;-88
2021/11/28 05:44:09;;;;;;;7.37;6.30;;;;;;;;;;5053689;28;20650;-88
2021/11/28 05:46:36;;;;;;;6.27;5.37;;;;;;;;;;5056800;28;20585;-88
2021/11/28 05:49:04;;;;;;;6.40;5.70;;;;;;;;;;5057832;28;20202;-88
2021/11/28 05:51:31;;;;;;;5.47;4.63;;;;;;;;;;5056304;28;20250;-88
2021/11/28 05:53:57;;;;;;;7.03;5.83;;;;;;;;;;5056768;28;20620;-88
2021/11/28 05:56:24;;;;;;;8.97;5.70;;;;;;;;;;5056950;28;20190;-88
2021/11/28 05:58:51;;;;;;;7.47;5.73;;;;;;;;;;5056972;28;20187;-88
2021/11/28 06:01:17;;;;;;;5.27;4.77;;;;;;;;;;5057081;28;20669;-87
2021/11/28 06:03:44;;;;;;;6.10;5.50;;;;;;;;;;5057320;28;20647;-87
2021/11/28 06:06:12;;;;;;;5.43;4.93;;;;;;;;;;5074768;28;20324;-88
2021/11/28 06:08:39;;;;;;;6.17;4.67;;;;;;;;;;5053472;28;20258;-88
2021/11/28 06:11:05;;;;;;;6.57;5.00;;;;;;;;;;5053150;28;20238;-87
2021/11/28 06:13:32;;;;;;;6.83;5.17;;;;;;;;;;5054288;28;20226;-88
2021/11/28 06:15:59;;;;;;;5.47;4.93;;;;;;;;;;5054738;28;20203;-88
2021/11/28 06:18:25;;;;;;;5.70;4.57;;;;;;;;;;5053232;28;20200;-88
2021/11/28 06:20:52;;;;;;;7.10;5.03;;;;;;;;;;5053060;28;20675;-88
2021/11/28 06:23:20;;;;;;;6.07;5.17;;;;;;;;;;5053600;28;20651;-88
2021/11/28 06:25:47;;;;;;;6.17;4.60;;;;;;;;;;5053781;28;20196;-88
2021/11/28 06:28:13;;;;;;;5.60;4.50;;;;;;;;;;5053604;28;20192;-88
2021/11/28 06:30:40;;;;;;;4.80;4.40;;;;;;;;;;5053221;28;20226;-88
2021/11/28 06:33:07;;;;;;;4.87;4.43;;;;;;;;;;5054578;28;20677;-87
2021/11/28 06:35:34;;;;;;;6.17;4.60;;;;;;;;;;5053509;28;20243;-88
2021/11/28 06:38:01;;;;;;;5.23;4.40;;;;;;;;;;5054370;28;20211;-88
2021/11/28 06:40:29;;;;;;;5.10;4.17;;;;;;;;;;5052942;28;20227;-88
2021/11/28 06:42:56;;;;;;;4.93;4.40;;;;;;;;;;5052126;28;20203;-88
2021/11/28 06:45:23;;;;;;;4.23;3.83;;;;;;;;;;5053033;28;20236;-88
2021/11/28 06:47:50;;;;;;;5.37;4.13;;;;;;;;;;5053037;28;20199;-88
2021/11/28 06:50:17;;;;;;;5.27;4.03;;;;;;;;;;5053072;28;20222;-87
2021/11/28 06:52:44;;;;;;;6.83;4.80;;;;;;;;;;5052893;28;20199;-88
2021/11/28 06:55:11;;;;;;;4.60;4.20;;;;;;;;;;5052650;28;20238;-89
2021/11/28 06:57:40;;;;;;;6.83;4.73;;;;;;;;;;5052092;28;20207;-88
2021/11/28 07:00:07;;;;;;;5.83;4.40;;;;;;;;;;5054144;28;20678;-88
2021/11/28 07:02:34;;;;;;;5.60;4.50;;;;;;;;;;5053036;28;20671;-88
2021/11/28 07:05:00;;;;;;;4.67;4.23;;;;;;;;;;5052382;28;20726;-89
2021/11/28 07:07:27;;;;;;;5.37;4.47;;;;;;;;;;5052043;28;20265;-89
2021/11/28 07:09:54;;;;;;;5.03;4.53;;;;;;;;;;5052654;28;20659;-88
2021/11/28 07:12:22;;;;;;;6.03;4.20;;;;;;;;;;5052595;28;20261;-87
2021/11/28 07:14:50;;;;;;;6.63;4.73;;;;;;;;;;5052253;28;20636;-87
2021/11/28 07:17:17;;;;;;;5.13;4.70;;;;;;;;;;5053379;28;20176;-88
2021/11/28 07:19:44;;;;;;;5.27;4.80;;;;;;;;;;5051845;28;20199;-87
2021/11/28 07:22:11;;;;;;;5.77;4.60;;;;;;;;;;5052108;28;20222;-88
2021/11/28 07:24:38;;;;;;;5.50;4.37;;;;;;;;;;5052332;28;20195;-86
2021/11/28 07:27:05;;;;;;;8.37;4.80;;;;;;;;;;5052013;28;20199;-87
2021/11/28 07:29:31;;;;;;;7.00;4.60;;;;;;;;;;5052488;28;20195;-87
2021/11/28 07:31:59;;;;;;;5.20;4.70;;;;;;;;;;5053004;28;20187;-87
2021/11/28 07:34:26;;;;;;;4.90;4.40;;;;;;;;;;5052602;28;20265;-87
2021/11/28 07:36:53;;;;;;;7.03;4.57;;;;;;;;;;5053150;28;20613;-88
2021/11/28 07:39:21;;;;;;;4.70;4.30;;;;;;;;;;5055373;28;20183;-86
2021/11/28 07:41:48;;;;;;;5.20;4.70;;;;;;;;;;5053793;28;20617;-87
2021/11/28 07:44:15;;;;;;;6.33;5.03;;;;;;;;;;5056427;28;20184;-89
2021/11/28 07:46:41;;;;;;;8.33;5.00;;;;;;;;;;5053275;28;20191;-87
2021/11/28 07:49:09;;;;;;;5.60;5.10;;;;;;;;;;5055584;28;20191;-88
2021/11/28 07:51:36;;;;;;;8.13;5.63;;;;;;;;;;5070336;28;20268;-88
2021/11/28 07:54:03;;;;;;;6.77;5.50;;;;;;;;;;5071490;28;20206;-84
2021/11/28 07:56:29;;;;;;;7.50;5.50;;;;;;;;;;5072641;28;20666;-85
2021/11/28 07:58:56;;;;;;;5.67;5.10;;;;;;;;;;5073275;28;20210;-84
2021/11/28 08:01:26;;;;;;;6.33;4.80;;;;;;;;;;5070625;28;20202;-84
2021/11/28 08:03:53;;;;;;;5.10;4.70;;;;;;;;;;5071581;28;20199;-85
2021/11/28 08:06:22;;;;;;;7.07;5.17;;;;;;;;;;5071490;28;20554;-84
2021/11/28 08:08:48;;;;;;;5.70;5.00;;;;;;;;;;5070146;28;20640;-85
2021/11/28 08:11:15;;;;;;;5.73;5.13;;;;;;;;;;5070371;28;20207;-86
2021/11/28 08:13:42;;;;;;;7.00;5.30;;;;;;;;;;5071148;28;20240;-82
2021/11/28 08:16:09;;;;;;;5.60;4.90;;;;;;;;;;5071556;28;20238;-87
2021/11/28 08:18:35;;;;;;;5.73;5.03;;;;;;;;;;5071318;28;20207;-86
2021/11/28 08:21:02;;;;;;;5.80;5.30;;;;;;;;;;5072075;28;20584;-85
2021/11/28 08:23:30;;;;;;;6.40;5.07;;;;;;;;;;5071932;28;20245;-85
2021/11/28 08:25:57;;;;;;;7.33;5.37;;;;;;;;;;5069789;28;20195;-84
2021/11/28 08:28:24;;;;;;;6.03;5.43;;;;;;;;;;5070883;28;20190;-87
2021/11/28 08:30:51;;;;;;;5.63;5.03;;;;;;;;;;5070451;28;20654;-86
2021/11/28 08:33:18;;;;;;;6.10;5.50;;;;;;;;;;5070800;28;20190;-85
2021/11/28 08:35:44;;;;;;;6.97;5.20;;;;;;;;;;5071800;28;20222;-85
2021/11/28 08:38:11;;;;;;;6.20;5.60;;;;;;;;;;5070382;28;20190;-85
2021/11/28 08:40:39;;;;;;;6.80;5.73;;;;;;;;;;5070196;28;20194;-84
2021/11/28 08:43:06;;;;;;;6.20;5.53;;;;;;;;;;5070468;28;20199;-85
2021/11/28 08:45:33;;;;;;;7.53;6.47;;;;;;;;;;5070405;28;20280;-85
2021/11/28 08:48:01;;;;;;;7.37;6.03;;;;;;;;;;5070312;28;20256;-86
2021/11/28 08:50:28;;;;;;;8.77;6.70;;;;;;;;;;5070109;28;20261;-84
2021/11/28 08:52:55;;;;;;;7.03;6.17;;;;;;;;;;5070687;28;20659;-84
2021/11/28 08:55:22;;;;;;;7.27;6.07;;;;;;;;;;5070294;28;20289;-85
2021/11/28 08:57:50;;;;;;;6.40;5.80;;;;;;;;;;5070880;28;20206;-87
2021/11/28 09:00:17;;;;;;;5.97;5.47;;;;;;;;;;5071551;28;20211;-85
2021/11/28 09:02:46;;;;;;;7.50;5.93;;;;;;;;;;5070038;28;20195;-85
2021/11/28 09:05:12;;;;;;;7.47;6.70;;;;;;;;;;5069812;28;20260;-85
2021/11/28 09:07:39;;;;;;;8.00;6.47;;;;;;;;;;5075971;28;20566;-85
2021/11/28 09:10:06;;;;;;;7.20;6.43;;;;;;;;;;5091678;28;20220;-84
2021/11/28 09:12:33;;;;;;;6.77;5.87;;;;;;;;;;5073039;28;20591;-85
2021/11/28 09:15:01;;;;;;;6.20;5.60;;;;;;;;;;5073502;28;20259;-85
2021/11/28 09:17:28;;;;;;;6.20;5.60;;;;;;;;;;5073221;28;20609;-85
2021/11/28 09:19:59;;;;;;;7.73;6.53;;;;;;;;;;5075389;28;20198;-86
2021/11/28 09:24:23;;;;;;;8.33;5.90;;;;;;;;;;5095889;28;20205;-88
2021/11/28 09:25:13;;;;;;;6.30;5.70;;;;;;;;;;5076996;28;20544;-87
2021/11/28 09:27:41;;;;;;;11.57;5.73;;;;;;;;;;5077502;28;20200;-86
2021/11/28 09:30:10;;;;;;;9.63;5.83;;;;;;;;;;5077444;28;20197;-89
2021/11/28 09:32:37;;;;;;;7.83;5.53;;;;;;;;;;5078371;28;20248;-84
2021/11/28 09:35:03;;;;;;;6.30;5.70;;;;;;;;;;5095269;28;20267;-86
2021/11/28 09:37:31;;;;;;;6.83;5.53;;;;;;;;;;5077547;28;20197;-86
2021/11/28 09:39:59;;;;;;;5.70;5.27;;;;;;;;;;5077510;28;20661;-83
2021/11/28 09:42:28;;;;;;;9.00;5.97;;;;;;;;;;5077702;28;20213;-84
2021/11/28 09:44:58;;;;;;;6.60;5.67;;;;;;;;;;5077660;28;20654;-85
2021/11/28 09:47:26;;;;;;;6.67;5.50;;;;;;;;;;5077911;28;20232;-86
2021/11/28 09:49:55;;;;;;;6.90;5.70;;;;;;;;;;5077781;28;20224;-90
2021/11/28 09:52:24;;;;;;;6.77;5.47;;;;;;;;;;5078626;28;20201;-88
2021/11/28 09:54:53;;;;;;;7.13;5.43;;;;;;;;;;5095796;28;20248;-86
2021/11/28 09:57:21;;;;;;;6.50;5.90;;;;;;;;;;5080463;28;20750;-86
2021/11/28 09:59:51;;;;;;;7.37;6.23;;;;;;;;;;5077538;28;20215;-86
2021/11/28 10:02:19;;;;;;;7.50;6.13;;;;;;;;;;5076577;28;20667;-84
2021/11/28 10:04:48;;;;;;;8.40;6.10;;;;;;;;;;5095139;28;20593;-87
2021/11/28 10:07:15;;;;;;;6.23;5.23;;;;;;;;;;5077728;28;20657;-85
2021/11/28 10:09:42;;;;;;;6.00;5.40;;;;;;;;;;5076927;28;20186;-84
2021/11/28 10:12:14;;;;;;;7.43;5.30;;;;;;;;;;5077408;28;20217;-87
2021/11/28 10:14:42;;;;;;;5.00;4.50;;;;;;;;;;5077054;28;20734;-85
2021/11/28 10:17:09;;;;;;;6.10;5.17;;;;;;;;;;5076097;28;20245;-85
2021/11/28 10:19:36;;;;;;;6.20;5.50;;;;;;;;;;5095038;28;20201;-86
2021/11/28 10:22:04;;;;;;;5.33;4.83;;;;;;;;;;5076115;28;20612;-85
2021/11/28 10:24:31;;;;;;;5.43;4.87;;;;;;;;;;5076268;28;20206;-91
2021/11/28 10:27:02;;;;;;;5.67;5.00;;;;;;;;;;5075682;28;20198;-83
2021/11/28 10:29:30;;;;;;;6.57;4.73;;;;;;;;;;5095342;28;20212;-86
2021/11/28 10:31:58;;;;;;;5.67;5.00;;;;;;;;;;5075387;28;20259;-83
2021/11/28 10:34:26;;;;;;;5.27;4.77;;;;;;;;;;5076987;28;20215;-89
2021/11/28 10:36:53;;;;;;;5.13;4.60;;;;;;;;;;5076675;28;20245;-90
2021/11/28 10:39:22;;;;;;;6.23;5.10;;;;;;;;;;5076852;28;20206;-88
2021/11/28 10:41:50;;;;;;;6.60;5.07;;;;;;;;;;5090386;28;20194;-90
2021/11/28 10:44:18;;;;;;;6.00;5.40;;;;;;;;;;5096516;28;20174;-90
2021/11/28 10:46:46;;;;;;;8.83;5.10;;;;;;;;;;5077236;28;20202;-88
2021/11/28 10:49:14;;;;;;;6.57;5.30;;;;;;;;;;5060316;28;20806;-86
2021/11/28 10:51:42;;;;;;;6.60;5.13;;;;;;;;;;5055969;28;20226;-86
2021/11/28 10:54:23;;;;;;;7.00;5.33;;;;;;;;;;5056220;28;20206;-87
2021/11/28 10:57:00;;;;;;;7.27;5.03;;;;;;;;;;5055835;28;20206;-88
2021/11/28 10:59:27;;;;;;;6.00;5.50;;;;;;;;;;5056183;28;20201;-90
2021/11/28 11:01:54;;;;;;;6.67;5.03;;;;;;;;;;5057554;28;20259;-89
2021/11/28 11:04:21;;;;;;;6.63;5.37;;;;;;;;;;5056269;28;20716;-87
2021/11/28 11:07:05;;;;;;;5.80;5.00;;;;;;;;;;5055413;28;20272;-89
2021/11/28 11:09:38;;;;;;;8.40;5.57;;;;;;;;;;5056109;28;20202;-89
2021/11/28 11:12:16;;;;;;;7.97;5.43;;;;;;;;;;5073416;28;20236;-88
2021/11/28 11:14:43;;;;;;;6.73;6.10;;;;;;;;;;5074045;28;20215;-88
2021/11/28 11:17:10;;;;;;;7.47;5.43;;;;;;;;;;5055822;28;20234;-88
2021/11/28 11:19:40;;;;;;;8.60;5.70;;;;;;;;;;5074118;28;20182;-88
2021/11/28 11:22:08;;;;;;;10.23;5.87;;;;;;;;;;5055644;28;20226;-87
2021/11/28 11:24:36;;;;;;;5.87;5.27;;;;;;;;;;5055031;28;20631;-89
2021/11/28 11:27:08;;;;;;;6.17;5.47;;;;;;;;;;5055561;28;20600;-88
2021/11/28 11:29:35;;;;;;;6.43;5.27;;;;;;;;;;5055774;28;20206;-89
2021/11/28 11:32:08;;;;;;;5.53;5.03;;;;;;;;;;5072894;28;20244;-88
2021/11/28 11:34:37;;;;;;;5.87;5.37;;;;;;;;;;5055707;28;20210;-89
2021/11/28 11:37:04;;;;;;;5.53;5.00;;;;;;;;;;5055855;28;20242;-89
2021/11/28 11:39:32;;;;;;;5.13;4.63;;;;;;;;;;5073387;28;20238;-89
2021/11/28 11:42:00;;;;;;;6.57;5.03;;;;;;;;;;5055901;28;20226;-89
2021/11/28 11:44:28;;;;;;;6.00;4.20;;;;;;;;;;5055139;28;20654;-88
2021/11/28 11:46:56;;;;;;;5.17;4.67;;;;;;;;;;5054545;28;20640;-86
2021/11/28 11:49:24;;;;;;;5.00;4.50;;;;;;;;;;5073423;28;20643;-89
2021/11/28 11:51:51;;;;;;;5.53;4.80;;;;;;;;;;5055873;28;20546;-88
2021/11/28 11:54:21;;;;;;;4.53;4.13;;;;;;;;;;5073908;28;20183;-92
2021/11/28 11:56:49;;;;;;;4.27;3.80;;;;;;;;;;5056020;28;20235;-91
2021/11/28 11:59:24;;;;;;;4.33;3.93;;;;;;;;;;5058167;28;20228;-90
2021/11/28 12:01:59;;;;;;;3.87;3.57;;;;;;;;;;5056830;28;20703;-91
2021/11/28 12:04:35;;;;;;;4.03;3.63;;;;;;;;;;5057358;28;20186;-92
2021/11/28 12:07:02;;;;;;;4.07;3.60;;;;;;;;;;5056264;28;20195;-92
2021/11/28 12:09:29;;;;;;;6.73;3.80;;;;;;;;;;5054902;28;20190;-90
2021/11/28 12:11:57;;;;;;;6.30;3.90;;;;;;;;;;5054438;28;20188;-91
2021/11/28 12:14:26;;;;;;;3.90;3.50;;;;;;;;;;5054710;28;20557;-91
2021/11/28 12:16:54;;;;;;;4.37;3.90;;;;;;;;;;5052008;28;20211;-90
2021/11/28 12:19:40;;;;;;;3.73;3.43;;;;;;;;;;5052151;28;20239;-89
2021/11/28 12:22:09;;;;;;;4.53;3.60;;;;;;;;;;5053613;28;20194;-89
2021/11/28 12:24:35;;;;;;;4.20;3.80;;;;;;;;;;5051471;28;20191;-87
2021/11/28 12:27:03;;;;;;;3.70;3.40;;;;;;;;;;5052085;28;20587;-89
2021/11/28 12:29:41;;;;;;;4.03;3.73;;;;;;;;;;5051883;28;20187;-88
2021/11/28 12:32:23;;;;;;;6.37;3.53;;;;;;;;;;5053828;28;20237;-90
2021/11/28 12:34:54;;;;;;;4.37;3.97;;;;;;;;;;5051776;28;20195;-89
2021/11/28 12:37:22;;;;;;;4.50;3.80;;;;;;;;;;5051176;28;20207;-89
2021/11/28 12:39:50;;;;;;;3.63;3.33;;;;;;;;;;5050521;28;20706;-90
2021/11/28 12:42:21;;;;;;;6.27;4.00;;;;;;;;;;5050795;28;20195;-91
2021/11/28 12:44:58;;;;;;;5.97;3.93;;;;;;;;;;5034598;28;20203;-90
2021/11/28 12:47:25;;;;;;;5.35;4.40;;;;;;;;;;5051380;28;20743;-89
2021/11/28 12:49:54;;;;;;;4.27;3.87;;;;;;;;;;5052178;28;20226;-91
2021/11/28 12:52:31;;;;;;;6.50;3.67;;;;;;;;;;5052878;28;20242;-89
2021/11/28 12:55:22;;;;;;;3.70;3.40;;;;;;;;;;5054968;28;20490;-92
2021/11/28 12:58:08;;;;;;;4.10;3.80;;;;;;;;;;5033244;28;20215;-88
2021/11/28 13:00:37;;;;;;;4.13;3.47;;;;;;;;;;5055702;28;20195;-88
2021/11/28 13:03:20;;;;;;;4.77;3.80;;;;;;;;;;5056527;28;20571;-91
2021/11/28 13:05:48;;;;;;;3.73;3.43;;;;;;;;;;5056509;28;20264;-88
2021/11/28 13:08:33;;;;;;;4.60;3.80;;;;;;;;;;5066935;28;20226;-91
2021/11/28 13:11:18;;;;;;;3.77;3.47;;;;;;;;;;5059812;28;20195;-91
2021/11/28 13:13:45;;;;;;;3.50;3.20;;;;;;;;;;5058849;28;20240;-90
2021/11/28 13:16:14;;;;;;;3.30;3.00;;;;;;;;;;5059087;28;20254;-90
2021/11/28 13:18:43;;;;;;;3.53;3.33;;;;;;;;;;5057736;28;20712;-88
2021/11/28 13:21:12;;;;;;;3.53;3.23;;;;;;;;;;5059012;28;20198;-89
2021/11/28 13:23:39;;;;;;;5.77;3.50;;;;;;;;;;5077176;28;20190;-90
2021/11/28 13:26:07;;;;;;;3.90;3.50;;;;;;;;;;5059786;28;20651;-90
2021/11/28 13:28:35;;;;;;;4.33;3.60;;;;;;;;;;5058170;28;20187;-90
2021/11/28 13:31:06;;;;;;;3.87;3.57;;;;;;;;;;5058231;28;20187;-88
2021/11/28 13:33:35;;;;;;;5.40;3.63;;;;;;;;;;5077098;28;20227;-91
2021/11/28 13:36:04;;;;;;;4.17;3.77;;;;;;;;;;5060393;28;20194;-91
2021/11/28 13:38:31;;;;;;;5.33;4.83;;;;;;;;;;5059852;28;20569;-90
2021/11/28 13:41:04;;;;;;;5.10;4.50;;;;;;;;;;5078105;28;20546;-90
2021/11/28 13:43:32;;;;;;;4.40;4.00;;;;;;;;;;5058805;28;20247;-91
2021/11/28 13:45:58;;;;;;;3.90;3.50;;;;;;;;;;5060128;28;20696;-90
2021/11/28 13:48:38;;;;;;;5.17;3.67;;;;;;;;;;5058364;28;20191;-89
2021/11/28 13:51:05;;;;;;;4.20;3.80;;;;;;;;;;5058363;28;20225;-89
2021/11/28 13:53:32;;;;;;;4.60;4.20;;;;;;;;;;5075887;28;20175;-89
2021/11/28 13:55:58;;;;;;;4.20;3.80;;;;;;;;;;5058876;28;20662;-92
2021/11/28 13:58:25;;;;;;;4.87;4.47;;;;;;;;;;5058712;28;20249;-89
2021/11/28 14:00:52;;;;;;;4.17;3.77;;;;;;;;;;5058251;28;20198;-90
2021/11/28 14:03:18;;;;;;;3.60;3.30;;;;;;;;;;5058455;28;20190;-90
2021/11/28 14:05:47;;;;;;;4.97;4.00;;;;;;;;;;5057520;28;20187;-90
2021/11/28 14:08:14;;;;;;;3.90;3.60;;;;;;;;;;5054994;28;20262;-90
2021/11/28 14:10:40;;;;;;;3.90;3.60;;;;;;;;;;5055378;28;20192;-90
2021/11/28 14:13:08;;;;;;;3.50;3.30;;;;;;;;;;5054876;28;20679;-89
2021/11/28 14:15:37;;;;;;;6.53;4.67;;;;;;;;;;5053100;28;20988;-87
2021/11/28 14:18:05;;;;;;;6.73;4.83;;;;;;;;;;5053694;28;20605;-87
2021/11/28 14:20:32;;;;;;;4.90;4.40;;;;;;;;;;5052317;28;20233;-88
2021/11/28 14:23:00;;;;;;;8.07;6.37;;;;;;;;;;5054824;28;20245;-87
2021/11/28 14:25:29;;;;;;;9.70;6.13;;;;;;;;;;5052345;28;20249;-87
2021/11/28 14:28:06;;;;;;;7.40;6.23;;;;;;;;;;5053905;28;20687;-87
2021/11/28 14:30:33;;;;;;;7.40;5.43;;;;;;;;;;5051709;28;20268;-86
2021/11/28 14:32:59;;;;;;;5.47;4.20;;;;;;;;;;5052623;28;20226;-88
2021/11/28 14:35:26;;;;;;;4.87;4.30;;;;;;;;;;5052493;28;20195;-87
2021/11/28 14:38:13;;;;;;;5.70;4.20;;;;;;;;;;5052951;28;20594;-88
2021/11/28 14:40:41;;;;;;;5.17;4.57;;;;;;;;;;5052730;28;20255;-89
2021/11/28 14:43:08;;;;;;;4.30;3.67;;;;;;;;;;5054333;28;20218;-88
2021/11/28 14:45:35;;;;;;;5.77;5.17;;;;;;;;;;5052288;28;20207;-87
2021/11/28 14:48:18;;;;;;;5.27;4.77;;;;;;;;;;5051954;28;20235;-86
2021/11/28 14:50:46;;;;;;;5.40;4.80;;;;;;;;;;5051762;28;20224;-87